Time;durP1;ratioP1;P1;durP2;ratioP2;P2;SDS_P1;SDS_P2;PMS_P1;PMS_P2;Temp;Humidity;BMP_temperature;BMP_pressure;BME280_temperature;BME280_humidity;BME280_pressure;Samples;Min_cycle;Max_cycle;Signal;HPM_P1;HPM_P2
2022/05/25 06:25:20;;;;;;;10.32;4.00;;;;;;;22.64;50.01;98308.22;4503532;31;128378;-84
2022/05/25 06:27:46;;;;;;;8.85;3.65;;;;;;;22.64;50.01;98308.22;4495601;31;20126;-85
2022/05/25 06:30:12;;;;;;;10.80;3.78;;;;;;;22.84;49.04;98316.69;4491553;31;20118;-86
2022/05/25 06:32:37;;;;;;;10.13;4.50;;;;;;;23.38;46.96;98310.59;4493303;31;20104;-84
2022/05/25 06:35:03;;;;;;;11.20;4.30;;;;;;;23.77;46.44;98312.34;4486310;32;20146;-82
2022/05/25 06:37:28;;;;;;;9.38;3.97;;;;;;;24.09;46.02;98313.97;4494357;31;20100;-83
2022/05/25 06:39:54;;;;;;;8.90;4.12;;;;;;;24.30;45.11;98313.25;4494989;31;20480;-83
2022/05/25 06:42:19;;;;;;;10.15;4.55;;;;;;;24.60;44.49;98307.94;4498116;31;20110;-80
2022/05/25 06:44:44;;;;;;;9.95;3.85;;;;;;;24.86;43.30;98312.84;4492225;31;20127;-81
2022/05/25 06:47:15;;;;;;;10.40;4.30;;;;;;;24.96;43.48;98306.34;4498308;31;20108;-84
2022/05/25 06:49:40;;;;;;;10.27;4.12;;;;;;;25.03;43.10;98302.69;4497662;31;20122;-82
2022/05/25 06:52:09;;;;;;;10.10;3.80;;;;;;;25.14;43.50;98306.78;4498758;31;20092;-82
2022/05/25 06:54:34;;;;;;;9.05;3.95;;;;;;;25.28;43.21;98310.50;4496859;32;20356;-85
2022/05/25 06:57:00;;;;;;;10.00;4.65;;;;;;;25.50;42.58;98308.69;4494981;32;20118;-84
2022/05/25 06:59:25;;;;;;;9.63;4.25;;;;;;;25.80;41.24;98298.56;4485289;31;20096;-85
2022/05/25 07:01:51;;;;;;;11.98;4.60;;;;;;;25.81;41.44;98300.25;4494679;31;20088;-86
2022/05/25 07:04:16;;;;;;;9.32;4.53;;;;;;;25.98;41.42;98302.72;4489274;32;20115;-85
2022/05/25 07:06:42;;;;;;;10.20;4.62;;;;;;;25.96;41.29;98307.47;4488895;31;20084;-84
2022/05/25 07:09:08;;;;;;;10.15;4.57;;;;;;;26.10;40.91;98306.56;4494903;32;20139;-84
2022/05/25 07:11:34;;;;;;;9.27;4.25;;;;;;;26.00;41.61;98306.03;4485565;31;20096;-84
2022/05/25 07:14:00;;;;;;;12.95;4.45;;;;;;;25.83;41.59;98319.78;4493848;31;20126;-82
2022/05/25 07:16:26;;;;;;;11.80;4.62;;;;;;;25.90;41.71;98322.53;4485325;32;20148;-84
2022/05/25 07:18:51;;;;;;;11.80;4.10;;;;;;;25.95;41.67;98312.03;4498352;31;20080;-83
2022/05/25 07:21:26;;;;;;;10.48;4.07;;;;;;;26.15;41.12;98312.19;4497972;31;20123;-83
2022/05/25 07:23:52;;;;;;;10.07;4.57;;;;;;;26.23;41.15;98311.22;4473136;32;20131;-83
2022/05/25 07:26:19;;;;;;;11.10;4.10;;;;;;;26.26;40.78;98305.44;4482804;32;20111;-83
2022/05/25 07:28:46;;;;;;;10.57;4.18;;;;;;;26.25;40.52;98301.91;4481787;32;20160;-83
2022/05/25 07:31:31;;;;;;;9.98;4.22;;;;;;;26.34;40.77;98301.75;4482862;32;20085;-82
2022/05/25 07:33:59;;;;;;;9.15;3.72;;;;;;;26.47;40.37;98297.28;4487771;31;20431;-82
2022/05/25 07:36:25;;;;;;;9.60;3.80;;;;;;;26.52;40.35;98309.34;4488947;31;20104;-82
2022/05/25 07:38:53;;;;;;;9.15;3.50;;;;;;;26.49;40.40;98299.78;4486311;32;20412;-82
2022/05/25 07:41:19;;;;;;;;;;;;;;;26.54;40.79;98309.97;4472690;32;20084;-83
2022/05/25 07:43:47;;;;;;;9.82;3.62;;;;;;;26.66;40.76;98303.03;4472447;32;19987;-83
2022/05/25 07:46:12;;;;;;;10.00;4.22;;;;;;;26.71;40.48;98310.53;4471366;32;20762;-82
2022/05/25 07:48:38;;;;;;;11.88;4.10;;;;;;;26.87;40.35;98305.66;4472351;32;20134;-86
2022/05/25 07:51:04;;;;;;;9.32;3.55;;;;;;;26.84;40.55;98306.03;4458158;32;20081;-86
2022/05/25 07:56:15;;;;;;;11.45;4.05;;;;;;;27.02;39.66;98308.22;4471356;32;20489;-82
2022/05/25 07:58:41;;;;;;;11.23;4.62;;;;;;;26.97;39.93;98317.97;4470950;32;20093;-83
2022/05/25 08:01:10;;;;;;;10.23;4.20;;;;;;;26.98;39.68;98320.44;4471996;32;20077;-83
2022/05/25 08:06:38;;;;;;;8.38;3.67;;;;;;;26.89;39.94;98321.69;4423362;32;20132;-82
2022/05/25 08:09:03;;;;;;;10.20;4.40;;;;;;;26.85;40.53;98321.25;4423294;32;20115;-82
2022/05/25 08:11:30;;;;;;;10.45;4.12;;;;;;;26.85;40.41;98318.53;4410766;32;20183;-82
2022/05/25 08:13:56;;;;;;;9.50;3.95;;;;;;;26.84;40.80;98324.13;4423556;32;20145;-82
2022/05/25 08:16:21;;;;;;;9.90;4.68;;;;;;;26.84;41.09;98324.97;4410783;32;20381;-83
2022/05/25 08:18:47;;;;;;;8.90;4.10;;;;;;;26.85;40.47;98329.34;4423485;32;20114;-83
2022/05/25 08:21:12;;;;;;;8.68;4.12;;;;;;;26.90;40.86;98326.03;4423372;32;20138;-82
2022/05/25 08:23:38;;;;;;;10.23;4.37;;;;;;;26.89;40.71;98321.69;4423235;32;20153;-83
2022/05/25 08:26:03;;;;;;;10.27;4.43;;;;;;;26.95;40.56;98314.63;4410693;32;20139;-82
2022/05/25 08:28:29;;;;;;;9.60;4.65;;;;;;;27.12;40.35;98317.81;4423395;32;20189;-83
2022/05/25 08:30:54;;;;;;;11.35;5.07;;;;;;;27.20;40.06;98315.78;4423512;32;20105;-83
2022/05/25 08:33:21;;;;;;;10.15;4.30;;;;;;;27.07;40.38;98307.59;4423350;32;20181;-82
2022/05/25 08:35:47;;;;;;;9.15;4.37;;;;;;;27.07;40.77;98313.00;4423234;32;20136;-83
2022/05/25 08:38:13;;;;;;;10.02;4.80;;;;;;;27.28;40.27;98313.97;4423524;32;20122;-82
2022/05/25 08:40:39;;;;;;;10.65;4.50;;;;;;;27.18;40.47;98319.72;4448689;32;20076;-82
2022/05/25 08:43:22;;;;;;;10.45;4.28;;;;;;;27.24;40.62;98314.38;4470799;32;20105;-82
2022/05/25 08:45:52;;;;;;;10.63;4.65;;;;;;;27.26;41.44;98315.00;4470926;32;20128;-83
2022/05/25 08:48:19;;;;;;;10.65;4.20;;;;;;;27.44;40.28;98313.59;4469826;32;20081;-82
2022/05/25 08:50:48;;;;;;;10.18;5.05;;;;;;;27.43;40.29;98307.34;4457653;32;20513;-82
2022/05/25 08:53:16;;;;;;;11.25;4.90;;;;;;;27.31;40.60;98317.09;4472009;32;20122;-82
2022/05/25 08:55:55;;;;;;;10.32;4.78;;;;;;;27.37;40.77;98316.28;4470813;32;20365;-82
2022/05/25 08:58:21;;;;;;;14.70;5.57;;;;;;;27.40;40.58;98312.34;4470629;32;20085;-82
2022/05/25 09:00:48;;;;;;;11.27;4.37;;;;;;;27.50;40.09;98309.25;4470394;32;20420;-82
2022/05/25 09:03:31;;;;;;;9.65;4.70;;;;;;;27.51;40.49;98310.94;4470403;32;20127;-83
2022/05/25 09:06:05;;;;;;;12.52;5.12;;;;;;;27.42;40.69;98310.25;4470397;32;20127;-82
2022/05/25 09:09:05;;;;;;;14.27;5.07;;;;;;;27.42;41.58;98308.37;4457462;32;20165;-83
2022/05/25 09:11:38;;;;;;;;;;;;;;;27.53;40.89;98306.97;4471918;32;20617;-82
2022/05/25 09:14:33;;;;;;;12.00;4.90;;;;;;;27.52;41.27;98308.00;4471642;32;19976;-83
2022/05/25 09:17:06;;;;;;;11.77;4.97;;;;;;;27.51;41.47;98310.94;4394851;32;20110;-82
2022/05/25 09:19:37;;;;;;;11.70;5.07;;;;;;;27.56;41.27;98316.53;4395034;32;20168;-82
2022/05/25 09:22:09;;;;;;;11.77;5.40;;;;;;;27.61;40.33;98312.19;4394925;32;20430;-83
2022/05/25 09:24:35;;;;;;;12.57;5.10;;;;;;;27.65;40.33;98309.91;4407397;32;20402;-83
2022/05/25 09:27:02;;;;;;;12.10;5.90;;;;;;;27.53;41.16;98320.50;4394869;32;20457;-82
2022/05/25 09:29:28;;;;;;;10.70;5.20;;;;;;;27.63;40.96;98312.81;4394911;32;20094;-82
2022/05/25 09:31:59;;;;;;;10.60;5.53;;;;;;;27.59;41.93;98321.53;4407488;32;20110;-83
2022/05/25 09:34:44;;;;;;;12.23;6.12;;;;;;;27.70;41.65;98314.69;4394957;32;20504;-83
2022/05/25 09:37:27;;;;;;;10.55;5.35;;;;;;;27.69;41.40;98313.03;4394844;32;20236;-83
2022/05/25 09:39:53;;;;;;;11.15;5.22;;;;;;;27.65;41.40;98313.44;4394848;32;20109;-82
2022/05/25 09:42:20;;;;;;;11.93;5.53;;;;;;;27.70;41.62;98311.97;4407458;32;20389;-83
2022/05/25 09:44:52;;;;;;;11.48;5.30;;;;;;;27.90;40.50;98310.19;4394671;32;20153;-83
2022/05/25 09:47:23;;;;;;;11.65;5.55;;;;;;;27.89;40.78;98313.09;4407392;32;20223;-83
2022/05/25 09:49:51;;;;;;;11.07;5.78;;;;;;;27.93;41.09;98320.59;4407571;32;20544;-82
2022/05/25 09:52:27;;;;;;;11.57;4.87;;;;;;;28.05;40.41;98312.69;4395026;32;20085;-82
2022/05/25 09:54:57;;;;;;;10.52;5.62;;;;;;;28.14;41.22;98316.00;4465163;32;20116;-82
2022/05/25 09:57:28;;;;;;;12.50;5.95;;;;;;;28.23;41.05;98314.75;4470079;32;20108;-83
2022/05/25 10:00:18;;;;;;;10.73;4.93;;;;;;;28.33;40.35;98307.03;4469700;32;20439;-83
2022/05/25 10:03:00;;;;;;;11.25;5.70;;;;;;;28.68;40.55;98311.41;4471233;32;20141;-83
2022/05/25 10:05:28;;;;;;;11.38;5.45;;;;;;;28.87;39.49;98305.09;4470059;32;20532;-82
2022/05/25 10:08:09;;;;;;;10.30;5.18;;;;;;;28.67;39.70;98304.31;4469917;32;20135;-82
2022/05/25 10:10:50;;;;;;;10.25;4.93;;;;;;;28.53;40.40;98315.19;4470005;32;20085;-83
2022/05/25 10:13:23;;;;;;;11.02;5.50;;;;;;;28.84;40.27;98316.37;4469864;32;20352;-83
2022/05/25 10:15:52;;;;;;;12.52;5.57;;;;;;;28.87;39.65;98320.53;4471099;32;20472;-82
2022/05/25 10:18:41;;;;;;;12.37;6.03;;;;;;;28.76;39.70;98308.44;4470967;32;20119;-82
2022/05/25 10:21:11;;;;;;;13.18;6.03;;;;;;;29.02;39.86;98311.09;4469833;32;20106;-82
2022/05/25 10:23:41;;;;;;;12.80;5.60;;;;;;;29.16;39.45;98317.31;4469503;32;20077;-82
2022/05/25 10:26:19;;;;;;;11.48;6.28;;;;;;;29.25;39.31;98315.19;4470860;32;20127;-83
2022/05/25 10:28:56;;;;;;;11.88;6.80;;;;;;;29.49;38.56;98312.78;4469694;32;20113;-83
2022/05/25 10:37:06;;;;;;;12.60;6.37;;;;;;;29.58;38.37;98308.78;4470714;32;20081;-82
2022/05/25 10:39:38;;;;;;;13.32;6.50;;;;;;;29.59;38.53;98311.28;4470643;32;20099;-83
2022/05/25 10:42:19;;;;;;;11.88;6.72;;;;;;;29.58;38.65;98308.78;4470671;32;20077;-82
2022/05/25 10:44:49;;;;;;;10.85;6.05;;;;;;;29.61;37.90;98313.75;4470516;32;20069;-82
2022/05/25 10:47:24;;;;;;;12.35;6.18;;;;;;;29.47;38.58;98309.44;4469315;32;20714;-83
2022/05/25 10:49:51;;;;;;;12.90;6.70;;;;;;;29.54;38.67;98305.66;4470496;32;20085;-82
2022/05/25 10:52:39;;;;;;;13.32;6.93;;;;;;;29.43;38.80;98313.66;4469260;32;20088;-82
2022/05/25 10:55:05;;;;;;;11.80;6.30;;;;;;;29.70;38.22;98303.47;4469336;32;20455;-82
2022/05/25 10:57:37;;;;;;;13.10;6.70;;;;;;;29.81;38.02;98319.09;4470418;32;20081;-82
2022/05/25 11:00:08;;;;;;;11.45;6.32;;;;;;;29.74;37.68;98310.16;4470334;32;20139;-82
2022/05/25 11:03:02;;;;;;;11.90;6.28;;;;;;;29.77;38.47;98309.72;4470352;32;20461;-83
2022/05/25 11:05:30;;;;;;;10.63;6.10;;;;;;;29.73;38.44;98314.75;4470411;32;20120;-82
2022/05/25 11:08:06;;;;;;;12.40;6.25;;;;;;;29.78;38.49;98311.38;4470238;32;20205;-83
2022/05/25 11:10:44;;;;;;;11.48;5.82;;;;;;;29.90;37.77;98311.50;4469794;32;20457;-82
2022/05/25 11:13:36;;;;;;;12.07;6.00;;;;;;;29.81;37.94;98318.28;4471355;32;20085;-82
2022/05/25 11:16:38;;;;;;;10.55;5.82;;;;;;;29.70;37.77;98319.75;4471310;32;20422;-82
2022/05/25 11:19:35;;;;;;;14.38;6.97;;;;;;;29.58;38.26;98317.72;4472709;32;20108;-83
2022/05/25 11:22:38;;;;;;;12.60;6.37;;;;;;;29.24;38.72;98327.09;4471144;32;20150;-83
2022/05/25 11:25:28;;;;;;;11.18;5.65;;;;;;;29.06;38.86;98326.94;4472110;32;20084;-83
2022/05/25 11:28:35;;;;;;;10.40;6.15;;;;;;;29.07;39.18;98317.75;4472328;32;20415;-83
2022/05/25 11:31:17;;;;;;;11.40;6.00;;;;;;;29.05;38.90;98322.53;4471856;32;20085;-83
2022/05/25 11:34:02;;;;;;;10.40;5.57;;;;;;;29.17;38.47;98327.13;4470997;32;20118;-83
2022/05/25 11:37:11;;;;;;;11.27;5.85;;;;;;;29.12;38.85;98328.78;4472507;32;20072;-83
2022/05/25 11:39:42;;;;;;;;;;;;;;;28.87;39.35;98328.66;4408499;32;20555;-83
2022/05/25 11:42:28;;;;;;;13.52;6.97;;;;;;;28.85;39.61;98328.03;4408318;32;20066;-82
2022/05/25 11:45:03;;;;;;;12.07;5.57;;;;;;;28.71;38.72;98324.53;4408295;32;20124;-83
2022/05/25 11:47:59;;;;;;;11.80;5.78;;;;;;;28.48;39.19;98327.66;4408382;32;20098;-83
2022/05/25 11:50:42;;;;;;;12.10;6.50;;;;;;;28.36;39.49;98322.88;4395593;32;20503;-82
2022/05/25 11:53:42;;;;;;;11.60;6.30;;;;;;;28.46;39.45;98322.47;4395889;32;20165;-85
2022/05/25 11:56:08;;;;;;;14.23;6.53;;;;;;;28.49;39.41;98323.91;4348024;33;20459;-84
2022/05/25 11:58:38;;;;;;;11.40;6.03;;;;;;;28.25;39.72;98320.81;4348241;33;20111;-84
2022/05/25 12:01:15;;;;;;;11.12;6.07;;;;;;;28.28;40.39;98323.09;4348179;33;20400;-84
2022/05/25 12:04:05;;;;;;;12.13;6.03;;;;;;;28.36;40.86;98331.00;4348256;33;20119;-85
2022/05/25 12:06:55;;;;;;;10.70;5.85;;;;;;;28.23;41.50;98329.13;4348089;33;20095;-85
2022/05/25 12:09:57;;;;;;;11.55;6.25;;;;;;;28.18;42.47;98330.78;4348098;33;20096;-85
2022/05/25 12:13:00;;;;;;;13.57;6.10;;;;;;;28.06;42.88;98327.88;4348303;33;20215;-84
2022/05/25 12:15:36;;;;;;;11.55;5.60;;;;;;;27.71;43.44;98338.00;4382217;32;20163;-84
2022/05/25 12:18:24;;;;;;;11.10;6.22;;;;;;;27.35;44.92;98329.19;4408065;32;20094;-84
2022/05/25 12:21:00;;;;;;;11.65;6.47;;;;;;;27.57;44.11;98342.56;4407993;32;20324;-84
2022/05/25 12:23:32;;;;;;;11.80;6.28;;;;;;;27.59;43.89;98343.19;4407751;32;20112;-84
2022/05/25 12:26:02;;;;;;;14.18;6.30;;;;;;;27.56;43.77;98338.19;4408138;32;20167;-84
2022/05/25 12:28:33;;;;;;;11.75;5.85;;;;;;;27.71;43.99;98346.97;4395367;32;20159;-85
2022/05/25 12:31:03;;;;;;;13.57;5.95;;;;;;;27.70;44.10;98345.31;4407908;32;20090;-84
2022/05/25 12:33:28;;;;;;;10.73;5.57;;;;;;;27.69;43.88;98337.38;4466190;32;20386;-85
2022/05/25 12:35:54;;;;;;;11.05;6.20;;;;;;;27.60;44.36;98343.00;4471744;32;20085;-84
2022/05/25 12:38:21;;;;;;;13.50;6.75;;;;;;;27.16;44.78;98340.69;4470641;32;20131;-84
2022/05/25 12:40:48;;;;;;;11.55;6.05;;;;;;;27.05;44.83;98347.53;4470575;32;20088;-84
2022/05/25 12:43:40;;;;;;;11.55;6.28;;;;;;;27.03;45.05;98346.91;4471818;32;20433;-85
2022/05/25 12:48:59;;;;;;;12.75;6.28;;;;;;;26.96;45.22;98340.63;4397203;32;20124;-84
2022/05/25 12:51:39;;;;;;;15.98;7.15;;;;;;;26.98;45.43;98333.97;4407821;32;20113;-84
2022/05/25 12:54:29;;;;;;;11.88;6.28;;;;;;;27.11;44.90;98340.50;4407794;32;20085;-84
2022/05/25 12:56:55;;;;;;;10.40;6.00;;;;;;;27.16;45.09;98338.84;4398923;32;20133;-85
2022/05/25 12:59:33;;;;;;;12.35;6.30;;;;;;;27.18;44.44;98327.84;4407724;32;20122;-84
2022/05/25 13:02:22;;;;;;;12.05;7.22;;;;;;;27.28;44.49;98339.13;4395197;32;20090;-84
2022/05/25 13:04:54;;;;;;;;;;;;;;;27.14;44.53;98332.81;4408018;32;20094;-84
2022/05/25 13:07:49;;;;;;;11.63;6.82;;;;;;;27.22;44.04;98334.50;4395048;32;19982;-84
2022/05/25 13:10:21;;;;;;;13.32;6.03;;;;;;;27.30;44.00;98328.94;4405097;32;20532;-84
2022/05/25 13:12:50;;;;;;;12.98;7.55;;;;;;;27.37;44.24;98329.81;4407701;32;20090;-84
2022/05/25 13:15:17;;;;;;;15.10;7.60;;;;;;;27.22;43.76;98329.94;4407663;32;20160;-84
2022/05/25 13:17:50;;;;;;;13.68;6.70;;;;;;;27.15;44.02;98333.66;4407616;32;20177;-84
2022/05/25 13:20:27;;;;;;;12.45;7.03;;;;;;;27.02;44.51;98320.88;4407663;32;20177;-84
2022/05/25 13:23:01;;;;;;;13.23;7.10;;;;;;;27.00;44.20;98317.56;4433412;32;20372;-84
2022/05/25 13:25:51;;;;;;;11.32;6.90;;;;;;;26.90;44.83;98326.03;4471636;32;20101;-84
2022/05/25 13:28:21;;;;;;;11.48;7.00;;;;;;;26.95;44.68;98322.75;4470299;32;20105;-84
2022/05/25 13:30:58;;;;;;;11.48;7.57;;;;;;;27.04;44.75;98324.22;4471502;32;20349;-84
2022/05/25 13:33:27;;;;;;;12.45;7.12;;;;;;;27.20;44.57;98325.78;4469566;32;20155;-85
2022/05/25 13:35:57;;;;;;;12.00;6.85;;;;;;;27.39;42.88;98327.75;4470191;32;20132;-84
2022/05/25 13:38:34;;;;;;;12.05;5.87;;;;;;;27.30;43.31;98337.06;4470192;32;20193;-85
2022/05/25 13:41:22;;;;;;;11.35;6.03;;;;;;;27.49;41.78;98332.75;4470138;32;20096;-84
2022/05/25 13:44:00;;;;;;;10.43;6.30;;;;;;;27.45;41.86;98342.31;4471343;32;20106;-84
2022/05/25 13:46:45;;;;;;;12.37;6.97;;;;;;;27.24;42.70;98343.25;4470393;32;20247;-84
2022/05/25 13:49:35;;;;;;;12.85;6.97;;;;;;;27.48;42.42;98347.31;4471296;32;20088;-84
2022/05/25 13:52:19;;;;;;;11.98;7.68;;;;;;;27.02;43.36;98351.47;4471344;32;20126;-84
2022/05/25 13:55:02;;;;;;;12.43;7.05;;;;;;;27.24;43.11;98354.94;4471286;32;20068;-84
2022/05/25 13:57:38;;;;;;;11.93;6.75;;;;;;;27.23;43.58;98353.22;4470379;32;20084;-84
2022/05/25 14:00:20;;;;;;;10.32;6.78;;;;;;;27.13;43.61;98355.47;4470300;32;20104;-84
2022/05/25 14:02:47;;;;;;;12.37;7.12;;;;;;;27.22;43.01;98348.84;4471266;32;20490;-84
2022/05/25 14:05:34;;;;;;;11.73;6.68;;;;;;;26.96;43.04;98349.56;4469898;32;20495;-84
2022/05/25 14:08:16;;;;;;;11.57;6.62;;;;;;;26.84;43.63;98346.59;4469874;32;20169;-84
2022/05/25 14:10:55;;;;;;;14.02;6.60;;;;;;;26.88;42.88;98350.56;4471026;32;20488;-85
2022/05/25 14:13:49;;;;;;;10.52;6.28;;;;;;;26.79;42.74;98365.28;4471045;32;20128;-84
2022/05/25 14:16:23;;;;;;;12.93;7.05;;;;;;;26.78;43.13;98365.47;4468122;32;20072;-84
2022/05/25 14:18:57;;;;;;;10.98;6.53;;;;;;;26.70;42.92;98369.16;4471301;32;20073;-84
2022/05/25 14:21:30;;;;;;;12.37;7.00;;;;;;;26.82;42.74;98372.16;4470972;32;20085;-84
2022/05/25 14:23:57;;;;;;;10.63;6.62;;;;;;;26.77;43.05;98383.56;4470585;32;20384;-84
2022/05/25 14:26:28;;;;;;;11.48;7.25;;;;;;;27.02;41.78;98381.22;4469684;32;20150;-84
2022/05/25 14:28:55;;;;;;;12.07;7.53;;;;;;;26.98;42.22;98377.22;4470723;32;20423;-84
2022/05/25 14:31:21;;;;;;;12.63;7.27;;;;;;;26.90;42.48;98379.25;4469576;32;20143;-84
2022/05/25 14:33:48;;;;;;;12.20;6.43;;;;;;;26.97;43.07;98382.84;4470732;32;20593;-84
2022/05/25 14:36:18;;;;;;;11.50;6.43;;;;;;;26.84;42.32;98387.13;4469610;32;20432;-85
2022/05/25 14:38:44;;;;;;;12.93;7.30;;;;;;;26.96;41.91;98392.81;4470784;32;20099;-84
2022/05/25 14:41:21;;;;;;;11.02;6.65;;;;;;;26.85;41.82;98391.50;4470530;32;20453;-84
2022/05/25 14:43:47;;;;;;;11.98;6.45;;;;;;;26.71;42.21;98391.59;4470587;32;20085;-85
2022/05/25 14:46:15;;;;;;;11.38;6.10;;;;;;;26.62;42.62;98385.53;4470772;32;20149;-84
2022/05/25 14:48:43;;;;;;;12.10;6.30;;;;;;;26.54;42.73;98391.88;4472646;32;20103;-84
2022/05/25 14:51:09;;;;;;;10.75;5.65;;;;;;;26.65;42.27;98395.94;4472523;32;20443;-84
2022/05/25 14:53:34;;;;;;;10.45;5.62;;;;;;;26.47;42.13;98397.22;4471260;32;20093;-84
2022/05/25 14:56:02;;;;;;;10.50;5.35;;;;;;;26.74;41.95;98393.94;4471372;32;20077;-84
2022/05/25 14:58:47;;;;;;;10.90;5.85;;;;;;;26.77;41.69;98390.81;4472507;32;20097;-84
2022/05/25 15:01:14;;;;;;;11.02;5.03;;;;;;;26.74;41.86;98391.22;4471435;32;20168;-84
2022/05/25 15:04:03;;;;;;;9.40;5.00;;;;;;;26.85;41.42;98393.37;4471156;32;20502;-84
2022/05/25 15:06:52;;;;;;;9.32;4.22;;;;;;;26.49;41.48;98402.44;4472235;32;20085;-84
2022/05/25 15:09:30;;;;;;;10.30;4.55;;;;;;;26.20;42.16;98416.94;4472503;32;20140;-83
2022/05/25 15:12:17;;;;;;;;;;;;;;;26.12;42.05;98419.75;4472689;32;20191;-84
2022/05/25 15:20:48;;;;;;;11.82;4.30;;;;;;;25.48;43.05;98430.22;4480228;32;20106;-84
2022/05/25 15:23:23;;;;;;;10.02;4.57;;;;;;;25.74;42.51;98430.72;4486325;32;20139;-82
2022/05/25 15:25:50;;;;;;;9.32;4.37;;;;;;;25.66;42.95;98432.50;4487108;31;20361;-83
2022/05/25 15:28:19;;;;;;;10.57;5.15;;;;;;;25.73;43.23;98438.00;4473630;32;20092;-83
2022/05/25 15:30:50;;;;;;;10.07;4.57;;;;;;;25.72;43.48;98433.63;4487170;31;20101;-84
2022/05/25 15:33:21;;;;;;;9.18;4.32;;;;;;;25.35;44.57;98426.53;4486265;32;20108;-84
2022/05/25 15:35:49;;;;;;;9.45;4.20;;;;;;;25.42;44.91;98430.97;4487902;31;20088;-85
2022/05/25 15:38:18;;;;;;;9.40;4.40;;;;;;;25.47;44.54;98430.41;4486611;32;20250;-84
2022/05/25 15:40:46;;;;;;;10.13;4.30;;;;;;;25.50;44.65;98443.53;4471731;32;20073;-84
2022/05/25 15:43:12;;;;;;;9.27;4.20;;;;;;;25.38;44.98;98436.91;4472021;32;20198;-84
2022/05/25 15:45:39;;;;;;;8.18;3.62;;;;;;;25.21;45.27;98434.41;4472210;32;20092;-82
2022/05/25 15:48:07;;;;;;;9.18;3.58;;;;;;;24.98;45.78;98431.78;4470999;32;20088;-84
2022/05/25 15:50:37;;;;;;;8.77;3.20;;;;;;;24.55;46.84;98430.69;4471986;32;20102;-84
2022/05/25 15:53:04;;;;;;;8.32;3.42;;;;;;;24.82;46.46;98434.62;4468983;32;20105;-83
2022/05/25 15:55:30;;;;;;;6.85;2.83;;;;;;;24.76;46.83;98440.75;4471694;32;20096;-83
2022/05/25 15:57:55;;;;;;;7.57;2.92;;;;;;;24.78;46.83;98452.19;4470018;32;20509;-83
2022/05/25 16:00:21;;;;;;;6.28;2.50;;;;;;;24.68;47.04;98466.75;4471523;32;20092;-83
2022/05/25 16:02:48;;;;;;;5.60;2.42;;;;;;;24.55;47.41;98461.16;4457310;32;20120;-82
2022/05/25 16:05:17;;;;;;;7.90;2.60;;;;;;;24.48;47.40;98473.62;4470350;32;20109;-82
2022/05/25 16:10:35;;;;;;;4.95;1.90;;;;;;;24.58;47.12;98459.97;4447774;32;20248;-80
2022/05/25 16:13:01;;;;;;;4.95;1.60;;;;;;;24.46;46.83;98475.69;4452274;32;20518;-81
2022/05/25 16:15:28;;;;;;;5.03;1.70;;;;;;;24.45;46.72;98476.69;4438492;32;20109;-79
2022/05/25 16:17:54;;;;;;;3.00;1.45;;;;;;;24.57;46.35;98463.66;4439610;32;20158;-80
2022/05/25 16:20:19;;;;;;;2.65;1.40;;;;;;;24.30;46.99;98477.47;4451687;32;20464;-80
2022/05/25 16:22:46;;;;;;;4.75;1.37;;;;;;;24.10;46.96;98476.25;4452349;32;20117;-79
2022/05/25 16:25:17;;;;;;;4.28;1.48;;;;;;;24.03;46.47;98480.66;4451427;32;20097;-78
2022/05/25 16:27:43;;;;;;;4.78;1.87;;;;;;;24.21;45.96;98457.00;4451904;32;20180;-79
2022/05/25 16:30:09;;;;;;;3.05;1.37;;;;;;;23.94;46.67;98444.91;4438038;32;20654;-80
2022/05/25 16:32:34;;;;;;;2.60;1.20;;;;;;;23.98;46.41;98446.22;4438478;32;20487;-78
2022/05/25 16:35:00;;;;;;;2.67;1.30;;;;;;;23.52;47.30;98443.41;4451225;32;20146;-79
2022/05/25 16:37:26;;;;;;;3.58;1.40;;;;;;;24.05;46.05;98444.50;4439188;32;20272;-81
2022/05/25 16:39:51;;;;;;;4.18;1.30;;;;;;;23.94;46.02;98453.81;4451217;32;20806;-79
2022/05/25 16:42:17;;;;;;;3.12;1.30;;;;;;;23.75;46.51;98452.38;4439061;32;20128;-79
2022/05/25 16:44:45;;;;;;;5.75;1.45;;;;;;;23.66;46.76;98452.59;4438948;32;20112;-80
2022/05/25 16:47:10;;;;;;;4.20;1.40;;;;;;;23.51;47.16;98450.66;4459201;32;20538;-80
2022/05/25 16:49:36;;;;;;;3.65;1.10;;;;;;;23.38;47.92;98446.84;4468811;32;20085;-80
2022/05/25 16:52:01;;;;;;;3.12;1.23;;;;;;;23.16;48.83;98452.78;4468038;32;20164;-79
2022/05/25 16:54:26;;;;;;;2.85;1.30;;;;;;;23.36;49.18;98463.97;4470226;32;20444;-79
2022/05/25 16:56:54;;;;;;;3.67;1.20;;;;;;;23.33;49.47;98479.59;4468175;32;20100;-79
2022/05/25 16:59:24;;;;;;;2.62;1.40;;;;;;;23.28;49.83;98469.37;4468902;32;20119;-79
2022/05/25 17:01:50;;;;;;;3.40;1.37;;;;;;;23.17;50.17;98483.19;4469148;32;20097;-79
2022/05/25 17:04:15;;;;;;;4.25;1.65;;;;;;;22.98;51.31;98481.69;4469709;32;20104;-78
2022/05/25 17:06:40;;;;;;;3.17;1.40;;;;;;;22.73;52.37;98489.75;4468118;32;20093;-77
2022/05/25 17:09:06;;;;;;;3.47;1.40;;;;;;;22.83;52.51;98478.00;4468959;32;20108;-78
2022/05/25 17:11:32;;;;;;;5.97;1.50;;;;;;;22.63;53.10;98480.22;4468043;32;20109;-78
2022/05/25 17:14:00;;;;;;;3.97;1.60;;;;;;;22.85;53.25;98475.97;4468746;32;20101;-78
2022/05/25 17:16:27;;;;;;;4.28;1.67;;;;;;;22.81;54.00;98477.34;4469385;32;20147;-79
2022/05/25 17:21:39;;;;;;;3.62;1.50;;;;;;;22.72;54.52;98504.19;4468350;32;20560;-79
2022/05/25 17:24:06;;;;;;;2.97;1.55;;;;;;;22.38;55.21;98515.91;4468522;32;20101;-79
2022/05/25 17:26:31;;;;;;;5.40;1.60;;;;;;;22.30;56.08;98504.34;4471624;32;20160;-80
2022/05/25 17:28:57;;;;;;;3.25;1.50;;;;;;;22.19;56.40;98498.28;4476172;32;20089;-81
2022/05/25 17:31:23;;;;;;;5.60;1.95;;;;;;;22.10;56.63;98480.47;4469990;32;20440;-80
2022/05/25 17:33:48;;;;;;;6.35;1.90;;;;;;;21.79;57.38;98478.38;4468011;32;20116;-81
2022/05/25 17:41:48;;;;;;;6.55;2.72;;;;;;;20.96;60.59;98491.53;4468906;32;20136;-81
2022/05/25 17:44:15;;;;;;;6.60;2.50;;;;;;;20.92;60.95;98496.34;4473626;32;20077;-84
2022/05/25 17:46:41;;;;;;;8.38;2.67;;;;;;;20.70;61.96;98512.91;4485487;31;20118;-84
2022/05/25 17:49:07;;;;;;;7.55;2.70;;;;;;;20.65;62.42;98528.56;4484874;31;20483;-83
2022/05/25 17:51:33;;;;;;;6.47;2.65;;;;;;;20.38;63.43;98528.47;4483197;31;20148;-84
2022/05/25 17:53:58;;;;;;;6.03;2.58;;;;;;;19.99;65.22;98528.75;4485960;31;20126;-83
2022/05/25 17:56:24;;;;;;;6.35;2.60;;;;;;;20.14;64.77;98531.72;4480412;31;20443;-84
2022/05/25 17:58:49;;;;;;;7.03;2.60;;;;;;;20.21;64.73;98540.00;4474421;31;20092;-83
2022/05/25 18:01:15;;;;;;;8.45;3.03;;;;;;;20.28;64.53;98545.59;4473244;32;20221;-83
2022/05/25 18:03:40;;;;;;;6.65;2.67;;;;;;;20.10;65.09;98541.06;4473087;31;20080;-82
2022/05/25 18:06:06;;;;;;;8.73;2.92;;;;;;;19.97;66.05;98551.25;4479614;32;20084;-83
2022/05/25 18:08:33;;;;;;;7.10;3.10;;;;;;;20.04;66.09;98539.81;4468771;32;20088;-83
2022/05/25 18:10:58;;;;;;;6.82;2.72;;;;;;;20.17;65.40;98538.63;4468892;32;20440;-82
2022/05/25 18:13:24;;;;;;;6.95;2.87;;;;;;;19.94;66.46;98556.94;4470063;32;20178;-83
2022/05/25 18:15:49;;;;;;;6.97;2.92;;;;;;;19.80;66.90;98551.09;4470509;32;20432;-83
2022/05/25 18:18:17;;;;;;;9.48;3.30;;;;;;;19.86;66.89;98555.00;4469361;32;20103;-83
2022/05/25 18:20:43;;;;;;;7.78;3.22;;;;;;;19.93;66.45;98564.09;4470459;32;20120;-82
2022/05/25 18:23:09;;;;;;;7.87;3.28;;;;;;;20.02;65.97;98559.69;4469404;32;20367;-83
2022/05/25 18:25:35;;;;;;;7.97;3.50;;;;;;;19.99;66.33;98570.66;4470365;32;20111;-83
2022/05/25 18:28:01;;;;;;;9.90;2.95;;;;;;;19.91;66.21;98570.59;4470824;32;20084;-83
2022/05/25 18:30:28;;;;;;;7.22;2.80;;;;;;;20.13;65.65;98575.53;4469832;32;20455;-82
2022/05/25 18:32:53;;;;;;;7.53;3.05;;;;;;;20.14;65.26;98571.03;4470817;32;20476;-82
2022/05/25 18:35:19;;;;;;;7.03;2.72;;;;;;;20.13;64.99;98578.22;4470051;32;20146;-83
2022/05/25 18:37:44;;;;;;;6.80;2.53;;;;;;;20.21;64.95;98572.94;4470618;32;20082;-84
2022/05/25 18:40:11;;;;;;;6.57;2.87;;;;;;;20.28;64.48;98561.63;4469121;32;20101;-84
2022/05/25 18:42:36;;;;;;;7.45;2.80;;;;;;;20.31;64.64;98564.03;4470498;32;20089;-84
2022/05/25 18:45:03;;;;;;;6.68;2.53;;;;;;;20.22;64.53;98584.47;4456362;32;20092;-84
2022/05/25 18:47:28;;;;;;;6.15;2.22;;;;;;;19.78;65.56;98579.78;4469336;32;20093;-83